createdAt,value
2023-05-14T00:00:58.642Z,96.97
2023-05-14T00:01:58.714Z,97.69
2023-05-14T00:02:58.794Z,97.90
2023-05-14T00:03:58.821Z,97.96
2023-05-14T00:04:58.604Z,97.96
2023-05-14T00:05:58.568Z,97.39
2023-05-14T00:06:58.560Z,97.43
2023-05-14T00:07:58.551Z,97.64
2023-05-14T00:08:58.536Z,97.74
2023-05-14T00:09:58.522Z,97.74
2023-05-14T00:10:58.507Z,97.54
2023-05-14T00:11:58.495Z,97.27
2023-05-14T00:12:58.481Z,97.27
2023-05-14T00:13:58.474Z,97.47
2023-05-14T00:14:58.458Z,97.89
2023-05-14T00:15:58.510Z,98.81
2023-05-14T00:16:58.428Z,99.07
2023-05-14T00:17:58.516Z,99.38
2023-05-14T00:18:58.454Z,99.18
2023-05-14T00:19:58.395Z,99.07
2023-05-14T00:20:58.482Z,98.97
2023-05-14T00:21:58.427Z,98.97
2023-05-14T00:22:58.384Z,99.18
2023-05-14T00:23:58.429Z,99.43
2023-05-14T00:24:58.388Z,99.80
2023-05-14T00:25:58.428Z,99.70
2023-05-14T00:26:58.404Z,99.80
2023-05-14T00:27:58.291Z,99.90
2023-05-14T00:28:58.278Z,99.90
2023-05-14T00:29:58.263Z,99.99
2023-05-14T00:30:58.280Z,99.99
2023-05-14T00:31:58.279Z,99.99
2023-05-14T00:32:58.309Z,99.99
2023-05-14T00:33:58.212Z,99.99
2023-05-14T00:34:58.199Z,99.99
2023-05-14T00:35:58.183Z,99.50
2023-05-14T00:36:58.170Z,99.50
2023-05-14T00:37:58.158Z,99.40
2023-05-14T00:38:58.146Z,99.09
2023-05-14T00:39:58.131Z,99.14
2023-05-14T00:40:58.146Z,99.55
2023-05-14T00:41:58.108Z,99.40
2023-05-14T00:42:58.101Z,99.30
2023-05-14T00:43:58.082Z,99.20
2023-05-14T00:44:58.071Z,98.89
2023-05-14T00:45:58.057Z,99.09
2023-05-14T00:46:58.062Z,98.95
2023-05-14T00:47:58.110Z,98.95
2023-05-14T00:48:58.021Z,98.95
2023-05-14T00:49:58.008Z,98.74
2023-05-14T00:50:58.001Z,98.33
2023-05-14T00:51:57.990Z,98.69
2023-05-14T00:52:57.972Z,98.59
2023-05-14T00:53:57.959Z,98.69
2023-05-14T00:54:57.949Z,98.08
2023-05-14T00:55:57.935Z,98.43
2023-05-14T00:56:57.922Z,98.64
2023-05-14T00:57:57.911Z,99.05
2023-05-14T00:58:57.897Z,99.56
2023-05-14T00:59:57.884Z,99.66
2023-05-14T01:00:57.909Z,99.62
2023-05-14T01:01:57.856Z,99.62
2023-05-14T01:02:57.950Z,99.21
2023-05-14T01:03:58.177Z,99.51
2023-05-14T01:04:57.820Z,99.21
2023-05-14T01:05:57.813Z,99.26
2023-05-14T01:06:57.794Z,99.06
2023-05-14T01:07:57.779Z,99.06
2023-05-14T01:08:57.774Z,98.85
2023-05-14T01:09:57.755Z,98.96
2023-05-14T01:10:57.743Z,98.75
2023-05-14T01:11:57.735Z,98.55
2023-05-14T01:12:57.720Z,98.49
2023-05-14T01:13:57.705Z,98.55
2023-05-14T01:14:57.696Z,98.75
2023-05-14T01:15:57.711Z,98.65
2023-05-14T01:16:57.714Z,98.65
2023-05-14T01:17:57.666Z,98.44
2023-05-14T01:18:57.725Z,98.29
2023-05-14T01:19:57.678Z,98.60
2023-05-14T01:20:57.611Z,98.40
2023-05-14T01:21:57.600Z,98.19
2023-05-14T01:22:57.582Z,98.09
2023-05-14T01:23:57.574Z,98.19
2023-05-14T01:24:57.559Z,97.99
2023-05-14T01:25:57.545Z,98.19
2023-05-14T01:26:57.548Z,98.09
2023-05-14T01:27:57.518Z,98.19
2023-05-14T01:28:57.503Z,98.09
2023-05-14T01:29:57.492Z,97.89
2023-05-14T01:30:57.477Z,97.89
2023-05-14T01:31:57.510Z,97.89
2023-05-14T01:32:57.480Z,98.19
2023-05-14T01:33:57.436Z,97.99
2023-05-14T01:34:57.424Z,98.19
2023-05-14T01:35:57.448Z,97.79
2023-05-14T01:36:57.404Z,97.99
2023-05-14T01:37:57.383Z,98.09
2023-05-14T01:38:57.369Z,98.19
2023-05-14T01:39:57.358Z,98.19
2023-05-14T01:40:57.352Z,98.14
2023-05-14T01:41:57.352Z,97.83
2023-05-14T01:42:57.366Z,98.44
2023-05-14T01:43:57.307Z,98.85
2023-05-14T01:44:57.294Z,98.96
2023-05-14T01:45:57.288Z,98.91
2023-05-14T01:46:57.257Z,98.80
2023-05-14T01:47:57.303Z,98.70
2023-05-14T01:48:57.235Z,98.45
2023-05-14T01:49:57.222Z,98.19
2023-05-14T01:50:57.232Z,98.09
2023-05-14T01:51:57.223Z,98.29
2023-05-14T01:52:57.203Z,98.75
2023-05-14T01:53:57.171Z,98.55
2023-05-14T01:54:57.156Z,98.65
2023-05-14T01:55:57.145Z,99.26
2023-05-14T01:56:57.138Z,99.16
2023-05-14T01:57:57.118Z,98.85
2023-05-14T01:58:57.098Z,98.55
2023-05-14T01:59:57.122Z,98.96
2023-05-14T02:00:57.073Z,98.85
2023-05-14T02:01:57.166Z,98.85
2023-05-14T02:02:57.089Z,98.80
2023-05-14T02:03:57.105Z,98.91
2023-05-14T02:04:57.021Z,98.91
2023-05-14T02:05:57.011Z,98.60
2023-05-14T02:06:56.996Z,98.70
2023-05-14T02:07:57.011Z,98.60
2023-05-14T02:08:56.976Z,98.60
2023-05-14T02:09:56.957Z,98.65
2023-05-14T02:10:56.942Z,98.75
2023-05-14T02:11:56.938Z,98.75
2023-05-14T02:12:56.918Z,98.96
2023-05-14T02:14:56.889Z,98.65
2023-05-14T02:15:56.913Z,98.85
2023-05-14T02:16:56.865Z,98.96
2023-05-14T02:17:56.889Z,99.06
2023-05-14T02:18:56.874Z,99.06
2023-05-14T02:19:56.831Z,98.96
2023-05-14T02:20:56.819Z,99.06
2023-05-14T02:21:56.803Z,99.06
2023-05-14T02:22:56.815Z,98.96
2023-05-14T02:23:56.804Z,98.70
2023-05-14T02:24:56.765Z,98.80
2023-05-14T02:25:56.760Z,98.75
2023-05-14T02:26:56.735Z,98.80
2023-05-14T02:27:56.718Z,98.75
2023-05-14T02:28:56.714Z,98.60
2023-05-14T02:29:56.701Z,98.80
2023-05-14T02:30:56.682Z,98.80
2023-05-14T02:31:56.998Z,98.91
2023-05-14T02:32:56.705Z,98.80
2023-05-14T02:33:56.643Z,98.40
2023-05-14T02:34:56.646Z,97.93
2023-05-14T02:35:56.623Z,98.39
2023-05-14T02:36:56.603Z,99.00
2023-05-14T02:37:56.601Z,99.35
2023-05-14T02:38:56.583Z,99.46
2023-05-14T02:39:56.612Z,99.25
2023-05-14T02:40:56.552Z,99.60
2023-05-14T02:41:56.537Z,99.99
2023-05-14T02:42:56.532Z,99.99
2023-05-14T02:43:56.511Z,99.99
2023-05-14T02:44:56.500Z,99.99
2023-05-14T02:45:56.488Z,99.99
2023-05-14T02:46:56.483Z,99.99
2023-05-14T02:47:56.554Z,99.99
2023-05-14T02:48:56.453Z,99.99
2023-05-14T02:49:56.432Z,99.99
2023-05-14T02:50:56.422Z,99.99
2023-05-14T02:51:56.405Z,99.99
2023-05-14T02:52:56.389Z,99.51
2023-05-14T02:53:56.374Z,99.62
2023-05-14T02:54:56.374Z,98.84
2023-05-14T02:55:56.381Z,99.60
2023-05-14T02:56:56.337Z,99.99
2023-05-14T02:57:56.327Z,99.99
2023-05-14T02:58:56.321Z,99.99
2023-05-14T03:00:56.312Z,99.99
2023-05-14T03:01:56.283Z,99.99
2023-05-14T03:02:56.380Z,99.99
2023-05-14T03:03:56.244Z,99.99
2023-05-14T03:04:56.232Z,99.99
2023-05-14T03:05:56.229Z,99.99
2023-05-14T03:06:56.204Z,99.99
2023-05-14T03:07:56.193Z,99.99
2023-05-14T03:08:56.177Z,99.99
2023-05-14T03:09:56.166Z,99.99
2023-05-14T03:10:56.152Z,99.37
2023-05-14T03:11:56.166Z,99.41
2023-05-14T03:12:56.150Z,99.41
2023-05-14T03:13:56.116Z,98.80
2023-05-14T03:14:56.102Z,98.74
2023-05-14T03:15:56.088Z,99.30
2023-05-14T03:16:56.099Z,99.81
2023-05-14T03:17:56.085Z,99.99
2023-05-14T03:18:56.128Z,99.99
2023-05-14T03:19:56.039Z,99.91
2023-05-14T03:20:56.018Z,99.99
2023-05-14T03:21:56.006Z,99.81
2023-05-14T03:22:55.995Z,99.99
2023-05-14T03:23:55.992Z,99.99
2023-05-14T03:24:55.968Z,99.99
2023-05-14T03:25:55.959Z,99.99
2023-05-14T03:26:55.934Z,99.99
2023-05-14T03:27:55.952Z,99.99
2023-05-14T03:28:55.930Z,99.99
2023-05-14T03:29:55.897Z,99.99
2023-05-14T03:30:55.906Z,99.99
2023-05-14T03:31:55.876Z,99.99
2023-05-14T03:32:55.917Z,99.99
2023-05-14T03:33:55.846Z,99.99
2023-05-14T03:34:55.830Z,99.99
2023-05-14T03:35:55.823Z,99.99
2023-05-14T03:36:55.807Z,99.99
2023-05-14T03:37:55.791Z,99.99
2023-05-14T03:38:55.775Z,99.99
2023-05-14T03:39:55.762Z,99.99
2023-05-14T03:40:55.755Z,99.99
2023-05-14T03:41:55.741Z,99.99
2023-05-14T03:42:55.728Z,99.99
2023-05-14T03:43:55.740Z,99.99
2023-05-14T03:44:55.709Z,99.99
2023-05-14T03:45:55.687Z,99.99
2023-05-14T03:46:55.672Z,99.99
2023-05-14T03:47:55.698Z,99.99
2023-05-14T03:48:55.683Z,99.99
2023-05-14T03:49:55.631Z,99.99
2023-05-14T03:50:55.621Z,99.99
2023-05-14T03:51:55.603Z,99.99
2023-05-14T03:52:55.590Z,99.99
2023-05-14T03:53:55.581Z,99.99
2023-05-14T03:54:55.571Z,99.99
2023-05-14T03:55:55.550Z,99.99
2023-05-14T03:56:55.540Z,99.99
2023-05-14T03:57:55.550Z,99.99
2023-05-14T03:58:55.517Z,99.99
2023-05-14T03:59:55.524Z,99.99
2023-05-14T04:00:55.484Z,99.99
2023-05-14T04:01:55.477Z,99.99
2023-05-14T04:02:55.501Z,99.99
2023-05-14T04:03:55.643Z,99.99
2023-05-14T04:04:55.509Z,99.99
2023-05-14T04:05:55.416Z,99.91
2023-05-14T04:06:55.405Z,99.75
2023-05-14T04:07:55.399Z,99.99
2023-05-14T04:08:55.399Z,99.99
2023-05-14T04:09:55.368Z,99.99
2023-05-14T04:10:55.356Z,99.99
2023-05-14T04:11:55.344Z,99.99
2023-05-14T04:12:55.330Z,99.99
2023-05-14T04:13:55.314Z,99.91
2023-05-14T04:14:55.303Z,99.91
2023-05-14T04:15:55.338Z,99.99
2023-05-14T04:16:55.279Z,99.99
2023-05-14T04:17:55.309Z,99.66
2023-05-14T04:18:55.310Z,99.87
2023-05-14T04:19:55.244Z,98.89
2023-05-14T04:20:55.222Z,99.71
2023-05-14T04:21:55.210Z,99.40
2023-05-14T04:22:55.201Z,99.60
2023-05-14T04:23:55.182Z,99.71
2023-05-14T04:24:55.173Z,99.20
2023-05-14T04:25:55.159Z,99.24
2023-05-14T04:26:55.142Z,99.99
2023-05-14T04:27:55.137Z,99.99
2023-05-14T04:28:55.114Z,99.99
2023-05-14T04:29:55.107Z,99.99
2023-05-14T04:30:55.089Z,99.99
2023-05-14T04:31:55.116Z,99.99
2023-05-14T04:32:55.123Z,99.99
2023-05-14T04:33:55.050Z,99.99
2023-05-14T04:34:55.033Z,99.99
2023-05-14T04:35:55.024Z,99.99
2023-05-14T04:36:55.012Z,99.71
2023-05-14T04:37:55.000Z,99.99
2023-05-14T04:38:54.978Z,99.97
2023-05-14T04:39:54.965Z,99.99
2023-05-14T04:40:54.959Z,99.99
2023-05-14T04:41:54.948Z,99.99
2023-05-14T04:42:54.939Z,99.99
2023-05-14T04:43:54.913Z,99.99
2023-05-14T04:44:54.897Z,99.78
2023-05-14T04:45:54.913Z,99.67
2023-05-14T04:46:54.870Z,99.57
2023-05-14T04:47:54.912Z,99.73
2023-05-14T04:48:54.851Z,99.62
2023-05-14T04:49:54.836Z,99.21
2023-05-14T04:50:54.834Z,99.32
2023-05-14T04:51:54.806Z,99.07
2023-05-14T04:52:54.791Z,98.86
2023-05-14T04:53:54.784Z,98.76
2023-05-14T04:54:54.766Z,98.66
2023-05-14T04:55:54.754Z,98.71
2023-05-14T04:56:54.741Z,98.00
2023-05-14T04:57:54.727Z,97.54
2023-05-14T04:58:54.717Z,97.64
2023-05-14T04:59:54.704Z,97.33
2023-05-14T05:00:54.721Z,97.54
2023-05-14T05:01:54.678Z,97.64
2023-05-14T05:02:54.694Z,97.54
2023-05-14T05:03:54.732Z,97.48
2023-05-14T05:04:54.639Z,97.79
2023-05-14T05:05:54.634Z,97.94
2023-05-14T05:06:54.618Z,98.05
2023-05-14T05:07:54.610Z,98.20
2023-05-14T05:08:54.585Z,97.13
2023-05-14T05:09:54.578Z,97.13
2023-05-14T05:10:54.563Z,96.66
2023-05-14T05:11:54.553Z,96.81
2023-05-14T05:12:54.568Z,96.71
2023-05-14T05:13:54.527Z,97.42
2023-05-14T05:14:54.514Z,97.42
2023-05-14T05:15:54.523Z,97.63
2023-05-14T05:16:54.502Z,97.79
2023-05-14T05:17:54.498Z,97.73
2023-05-14T05:18:54.558Z,97.79
2023-05-14T05:19:54.478Z,98.29
2023-05-14T05:20:54.437Z,98.05
2023-05-14T05:21:54.423Z,97.64
2023-05-14T05:22:54.413Z,97.74
2023-05-14T05:23:54.403Z,97.64
2023-05-14T05:24:54.417Z,97.13
2023-05-14T05:25:54.374Z,96.92
2023-05-14T05:26:54.375Z,97.13
2023-05-14T05:27:54.348Z,96.82
2023-05-14T05:28:54.340Z,96.51
2023-05-14T05:29:54.321Z,96.31
2023-05-14T05:30:54.343Z,96.61
2023-05-14T05:31:54.355Z,96.92
2023-05-14T05:32:54.339Z,96.61
2023-05-14T05:33:54.277Z,96.31
2023-05-14T05:34:54.257Z,96.20
2023-05-14T05:35:54.269Z,95.84
2023-05-14T05:36:54.227Z,96.35
2023-05-14T05:37:54.215Z,97.17
2023-05-14T05:38:54.204Z,97.07
2023-05-14T05:39:54.201Z,96.86
2023-05-14T05:40:54.179Z,97.27
2023-05-14T05:41:54.172Z,97.58
2023-05-14T05:42:54.172Z,97.64
2023-05-14T05:43:54.140Z,97.64
2023-05-14T05:44:54.124Z,97.80
2023-05-14T05:45:54.113Z,97.18
2023-05-14T05:46:54.170Z,96.47
2023-05-14T05:47:54.111Z,96.77
2023-05-14T05:48:54.071Z,96.93
2023-05-14T05:49:54.078Z,96.22
2023-05-14T05:50:54.045Z,95.55
2023-05-14T05:51:54.058Z,95.86
2023-05-14T05:52:54.016Z,95.55
2023-05-14T05:53:54.005Z,95.14
2023-05-14T05:54:53.993Z,95.24
2023-05-14T05:55:53.979Z,95.75
2023-05-14T05:56:53.989Z,96.16
2023-05-14T05:57:53.974Z,96.27
2023-05-14T05:58:53.956Z,95.29
2023-05-14T05:59:53.942Z,94.72
2023-05-14T06:00:53.922Z,94.92
2023-05-14T06:01:53.924Z,95.23
2023-05-14T06:02:53.993Z,95.94
2023-05-14T06:03:53.880Z,95.90
2023-05-14T06:04:53.903Z,95.80
2023-05-14T06:05:53.918Z,96.16
2023-05-14T06:06:53.854Z,96.32
2023-05-14T06:07:53.871Z,96.02
2023-05-14T06:08:53.812Z,95.55
2023-05-14T06:09:53.800Z,94.73
2023-05-14T06:10:53.785Z,94.43
2023-05-14T06:11:53.773Z,94.02
2023-05-14T06:12:53.760Z,94.53
2023-05-14T06:13:53.758Z,94.73
2023-05-14T06:14:53.736Z,95.09
2023-05-14T06:15:53.717Z,94.89
2023-05-14T06:16:53.792Z,94.85
2023-05-14T06:17:53.751Z,94.54
2023-05-14T06:18:53.737Z,93.78
2023-05-14T06:19:53.676Z,92.26
2023-05-14T06:20:53.671Z,91.34
2023-05-14T06:21:53.663Z,92.76
2023-05-14T06:22:53.639Z,93.43
2023-05-14T06:23:53.648Z,93.74
2023-05-14T06:24:53.626Z,93.19
2023-05-14T06:25:53.600Z,92.48
2023-05-14T06:26:53.581Z,92.48
2023-05-14T06:27:53.566Z,91.82
2023-05-14T06:28:53.558Z,90.09
2023-05-14T06:29:53.557Z,88.70
2023-05-14T06:30:53.529Z,90.44
2023-05-14T06:31:53.582Z,91.61
2023-05-14T06:32:53.563Z,91.37
2023-05-14T06:33:53.491Z,90.11
2023-05-14T06:34:53.475Z,89.91
2023-05-14T06:35:53.461Z,90.27
2023-05-14T06:36:53.457Z,90.06
2023-05-14T06:37:53.441Z,88.95
2023-05-14T06:38:53.423Z,87.93
2023-05-14T06:39:54.377Z,88.60
2023-05-14T06:40:53.396Z,89.47
2023-05-14T06:41:53.379Z,89.12
2023-05-14T06:42:53.368Z,89.02
2023-05-14T06:43:53.365Z,85.88
2023-05-14T06:44:53.344Z,87.09
2023-05-14T06:45:53.333Z,86.95
2023-05-14T06:46:53.325Z,86.40
2023-05-14T06:47:53.442Z,86.04
2023-05-14T06:48:53.348Z,82.80
2023-05-14T06:49:53.276Z,80.01
2023-05-14T06:50:53.268Z,80.79
2023-05-14T06:51:53.251Z,82.65
2023-05-14T06:52:53.240Z,82.73
2023-05-14T06:53:53.224Z,82.47
2023-05-14T06:54:53.214Z,83.56
2023-05-14T06:55:53.233Z,84.49
2023-05-14T06:56:53.189Z,85.96
2023-05-14T06:57:53.182Z,88.50
2023-05-14T06:58:53.169Z,89.28
2023-05-14T06:59:53.147Z,88.32
2023-05-14T07:00:53.134Z,89.60
2023-05-14T07:01:53.193Z,88.80
2023-05-14T07:02:53.136Z,87.70
2023-05-14T07:03:53.102Z,84.93
2023-05-14T07:04:53.083Z,84.03
2023-05-14T07:05:53.073Z,83.18
2023-05-14T07:06:53.060Z,83.95
2023-05-14T07:07:53.045Z,80.60
2023-05-14T07:08:53.030Z,77.87
2023-05-14T07:09:53.026Z,78.82
2023-05-14T07:10:53.012Z,80.23
2023-05-14T07:11:53.018Z,79.79
2023-05-14T07:12:52.979Z,78.98
2023-05-14T07:13:52.972Z,78.98
2023-05-14T07:14:52.958Z,79.51
2023-05-14T07:15:52.941Z,78.40
2023-05-14T07:16:52.962Z,79.27
2023-05-14T07:17:52.983Z,76.69
2023-05-14T07:18:53.006Z,78.91
2023-05-14T07:19:52.894Z,77.33
2023-05-14T07:20:52.892Z,79.01
2023-05-14T07:21:52.861Z,78.03
2023-05-14T07:22:52.855Z,78.64
2023-05-14T07:23:52.836Z,77.02
2023-05-14T07:24:52.822Z,78.10
2023-05-14T07:25:52.804Z,77.63
2023-05-14T07:26:52.800Z,75.91
2023-05-14T07:27:52.824Z,76.89
2023-05-14T07:28:52.784Z,74.77
2023-05-14T07:29:52.758Z,77.09
2023-05-14T07:30:52.793Z,77.84
2023-05-14T07:31:52.769Z,81.25
2023-05-14T07:32:52.764Z,80.56
2023-05-14T07:33:52.702Z,77.96
2023-05-14T07:34:52.692Z,73.96
2023-05-14T07:35:52.680Z,77.25
2023-05-14T07:36:52.672Z,76.41
2023-05-14T07:37:52.652Z,77.62
2023-05-14T07:38:52.636Z,74.66
2023-05-14T07:39:52.642Z,74.35
2023-05-14T07:40:52.617Z,73.24
2023-05-14T07:41:52.604Z,73.65
2023-05-14T07:42:52.589Z,75.43
2023-05-14T07:43:52.729Z,73.88
2023-05-14T07:44:52.563Z,73.68
2023-05-14T07:45:52.550Z,74.25
2023-05-14T07:46:52.553Z,71.83
2023-05-14T07:47:52.767Z,70.32
2023-05-14T07:48:52.512Z,70.76
2023-05-14T07:49:52.502Z,69.15
2023-05-14T07:50:52.486Z,68.95
2023-05-14T07:51:52.471Z,69.04
2023-05-14T07:52:52.459Z,68.28
2023-05-14T07:53:52.443Z,68.68
2023-05-14T07:54:52.486Z,66.87
2023-05-14T07:55:52.446Z,67.34
2023-05-14T07:56:52.412Z,65.80
2023-05-14T07:57:52.390Z,67.41
2023-05-14T07:58:52.382Z,64.61
2023-05-14T07:59:52.386Z,61.83
2023-05-14T08:00:52.361Z,57.03
2023-05-14T08:01:52.465Z,56.90
2023-05-14T08:02:52.662Z,54.46
2023-05-14T08:03:52.473Z,54.68
2023-05-14T08:04:52.393Z,56.66
2023-05-14T08:05:52.329Z,57.09
2023-05-14T08:06:52.293Z,58.64
2023-05-14T08:07:52.267Z,58.94
2023-05-14T08:08:52.256Z,59.11
2023-05-14T08:09:52.253Z,57.86
2023-05-14T08:10:52.270Z,56.10
2023-05-14T08:11:52.217Z,55.03
2023-05-14T08:12:52.222Z,53.71
2023-05-14T08:13:52.200Z,52.78
2023-05-14T08:14:52.187Z,53.16
2023-05-14T08:15:52.194Z,52.36
2023-05-14T08:16:52.198Z,53.38
2023-05-14T08:17:52.179Z,51.74
2023-05-14T08:18:52.178Z,51.24
2023-05-14T08:19:52.121Z,51.02
2023-05-14T08:20:52.120Z,51.07
2023-05-14T08:21:52.094Z,51.04
2023-05-14T08:22:52.089Z,51.64
2023-05-14T08:23:52.082Z,51.34
2023-05-14T08:24:52.066Z,51.56
2023-05-14T08:25:52.059Z,53.11
2023-05-14T08:26:52.044Z,52.09
2023-05-14T08:27:52.023Z,52.53
2023-05-14T08:28:52.014Z,51.17
2023-05-14T08:29:52.004Z,50.92
2023-05-14T08:30:52.021Z,49.78
2023-05-14T08:31:52.012Z,48.71
2023-05-14T08:32:51.991Z,47.68
2023-05-14T08:33:51.954Z,47.08
2023-05-14T08:34:52.132Z,48.96
2023-05-14T08:35:51.929Z,50.47
2023-05-14T08:36:51.918Z,49.41
2023-05-14T08:37:51.904Z,47.90
2023-05-14T08:38:51.895Z,47.30
2023-05-14T08:39:51.888Z,47.38
2023-05-14T08:40:51.869Z,46.76
2023-05-14T08:41:51.861Z,45.90
2023-05-14T08:42:51.873Z,44.42
2023-05-14T08:43:51.830Z,44.81
2023-05-14T08:44:51.822Z,44.91
2023-05-14T08:45:51.803Z,44.00
2023-05-14T08:46:51.794Z,44.10
2023-05-14T08:47:51.910Z,44.81
2023-05-14T08:48:51.777Z,45.31
2023-05-14T08:49:51.756Z,45.66
2023-05-14T08:50:51.760Z,43.37
2023-05-14T08:51:51.728Z,47.05
2023-05-14T08:52:51.725Z,49.90
2023-05-14T08:53:51.703Z,52.02
2023-05-14T08:54:51.692Z,55.09
2023-05-14T08:55:51.677Z,52.89
2023-05-14T08:56:51.985Z,51.34
2023-05-14T08:57:51.657Z,49.90
2023-05-14T08:58:51.641Z,48.37
2023-05-14T08:59:51.628Z,48.04
2023-05-14T09:00:51.614Z,46.58
2023-05-14T09:01:51.694Z,45.23
2023-05-14T09:02:51.806Z,43.70
2023-05-14T09:03:51.616Z,43.70
2023-05-14T09:04:51.573Z,43.88
2023-05-14T09:05:51.553Z,42.62
2023-05-14T09:06:51.542Z,44.20
2023-05-14T09:07:51.547Z,43.41
2023-05-14T09:08:51.518Z,43.46
2023-05-14T09:09:51.505Z,43.23
2023-05-14T09:10:51.517Z,42.59
2023-05-14T09:11:51.488Z,42.32
2023-05-14T09:12:51.470Z,45.47
2023-05-14T09:13:51.457Z,47.03
2023-05-14T09:14:51.449Z,46.32
2023-05-14T09:15:51.502Z,44.51
2023-05-14T09:16:51.528Z,44.37
2023-05-14T09:17:51.509Z,43.02
2023-05-14T09:18:51.445Z,42.36
2023-05-14T09:19:51.469Z,43.55
2023-05-14T09:20:51.379Z,45.67
2023-05-14T09:21:51.369Z,45.03
2023-05-14T09:22:51.349Z,43.51
2023-05-14T09:23:51.336Z,42.46
2023-05-14T09:24:51.325Z,41.37
2023-05-14T09:25:51.312Z,41.37
2023-05-14T09:26:51.299Z,40.99
2023-05-14T09:27:51.300Z,42.04
2023-05-14T09:28:51.276Z,41.53
2023-05-14T09:29:51.261Z,41.61
2023-05-14T09:30:51.263Z,41.80
2023-05-14T09:31:51.264Z,41.61
2023-05-14T09:32:51.246Z,41.53
2023-05-14T09:33:51.217Z,42.04
2023-05-14T09:34:51.203Z,40.89
2023-05-14T09:35:51.215Z,40.48
2023-05-14T09:36:51.182Z,39.37
2023-05-14T09:37:51.182Z,39.55
2023-05-14T09:38:51.164Z,39.55
2023-05-14T09:39:51.162Z,39.95
2023-05-14T09:40:51.130Z,39.89
2023-05-14T09:41:51.118Z,40.52
2023-05-14T09:42:51.112Z,40.42
2023-05-14T09:43:51.106Z,39.99
2023-05-14T09:44:51.083Z,39.55
2023-05-14T09:45:51.080Z,39.12
2023-05-14T09:46:51.104Z,38.70
2023-05-14T09:47:51.212Z,39.00
2023-05-14T09:48:51.038Z,39.39
2023-05-14T09:49:51.021Z,39.28
2023-05-14T09:50:51.010Z,37.90
2023-05-14T09:51:51.047Z,37.09
2023-05-14T09:52:50.988Z,36.76
2023-05-14T09:53:50.976Z,36.93
2023-05-14T09:54:50.963Z,36.74
2023-05-14T09:55:50.948Z,36.13
2023-05-14T09:56:50.967Z,36.03
2023-05-14T09:57:50.928Z,35.99
2023-05-14T09:58:50.912Z,35.65
2023-05-14T09:59:50.905Z,35.16
2023-05-14T10:00:50.955Z,36.62
2023-05-14T10:01:50.883Z,37.43
2023-05-14T10:02:50.869Z,38.29
2023-05-14T10:03:50.856Z,37.35
2023-05-14T10:04:50.957Z,37.37
2023-05-14T10:05:50.830Z,37.88
2023-05-14T10:06:50.818Z,38.09
2023-05-14T10:07:50.838Z,38.51
2023-05-14T10:08:50.790Z,38.33
2023-05-14T10:10:50.768Z,38.11
2023-05-14T10:11:50.758Z,38.39
2023-05-14T10:12:50.749Z,38.49
2023-05-14T10:13:50.736Z,38.70
2023-05-14T10:14:50.719Z,39.61
2023-05-14T10:15:50.713Z,39.92
2023-05-14T10:16:50.899Z,40.18
2023-05-14T10:17:50.717Z,39.91
2023-05-14T10:18:50.753Z,40.50
2023-05-14T10:19:50.664Z,41.13
2023-05-14T10:20:50.653Z,41.75
2023-05-14T10:21:50.636Z,41.65
2023-05-14T10:22:50.626Z,42.64
2023-05-14T10:23:50.631Z,42.02
2023-05-14T10:24:50.597Z,40.88
2023-05-14T10:25:50.590Z,41.29
2023-05-14T10:26:50.573Z,40.67
2023-05-14T10:27:50.571Z,40.58
2023-05-14T10:28:50.555Z,41.39
2023-05-14T10:29:50.540Z,41.47
2023-05-14T10:30:50.571Z,40.75
2023-05-14T10:31:50.536Z,40.34
2023-05-14T10:32:50.569Z,39.63
2023-05-14T10:33:50.560Z,38.61
2023-05-14T10:34:50.473Z,37.30
2023-05-14T10:35:50.461Z,37.98
2023-05-14T10:36:50.448Z,37.48
2023-05-14T10:37:50.438Z,37.58
2023-05-14T10:38:50.423Z,37.09
2023-05-14T10:39:50.435Z,38.19
2023-05-14T10:40:53.568Z,37.83
2023-05-14T10:41:50.386Z,39.67
2023-05-14T10:42:50.376Z,40.48
2023-05-14T10:43:50.364Z,40.80
2023-05-14T10:44:50.348Z,41.15
2023-05-14T10:45:50.340Z,40.96
2023-05-14T10:46:50.349Z,40.96
2023-05-14T10:47:50.335Z,40.56
2023-05-14T10:48:50.313Z,40.74
2023-05-14T10:49:50.289Z,41.55
2023-05-14T10:50:50.326Z,42.26
2023-05-14T10:51:50.278Z,42.18
2023-05-14T10:52:50.249Z,42.78
2023-05-14T10:53:50.237Z,42.64
2023-05-14T10:54:50.225Z,40.88
2023-05-14T10:55:50.242Z,39.31
2023-05-14T10:56:50.212Z,37.58
2023-05-14T10:57:50.191Z,36.81
2023-05-14T10:58:50.190Z,37.29
2023-05-14T10:59:50.168Z,36.71
2023-05-14T11:00:50.152Z,36.41
2023-05-14T11:01:50.167Z,36.81
2023-05-14T11:02:50.174Z,35.90
2023-05-14T11:03:50.180Z,35.49
2023-05-14T11:04:50.107Z,35.90
2023-05-14T11:05:50.097Z,36.91
2023-05-14T11:06:50.081Z,37.22
2023-05-14T11:07:50.097Z,38.26
2023-05-14T11:08:50.066Z,39.51
2023-05-14T11:09:50.046Z,40.56
2023-05-14T11:10:50.034Z,41.91
2023-05-14T11:11:50.049Z,42.32
2023-05-14T11:12:50.009Z,43.04
2023-05-14T11:13:50.002Z,43.46
2023-05-14T11:14:49.981Z,44.28
2023-05-14T11:15:49.971Z,44.40
2023-05-14T11:16:50.038Z,45.39
2023-05-14T11:17:49.973Z,45.91
2023-05-14T11:18:49.966Z,45.52
2023-05-14T11:19:51.230Z,45.49
2023-05-14T11:20:49.906Z,45.19
2023-05-14T11:21:49.918Z,45.47
2023-05-14T11:22:49.883Z,46.01
2023-05-14T11:23:49.871Z,46.21
2023-05-14T11:24:49.864Z,45.79
2023-05-14T11:25:49.886Z,45.30
2023-05-14T11:26:49.834Z,45.69
2023-05-14T11:27:49.855Z,45.37
2023-05-14T11:28:49.806Z,44.95
2023-05-14T11:29:49.798Z,45.05
2023-05-14T11:30:49.785Z,45.45
2023-05-14T11:31:49.843Z,45.01
2023-05-14T11:32:49.775Z,44.15
2023-05-14T11:33:49.747Z,42.72
2023-05-14T11:34:49.735Z,41.88
2023-05-14T11:35:49.731Z,40.06
2023-05-14T11:36:49.711Z,39.71
2023-05-14T11:37:49.704Z,39.16
2023-05-14T11:38:49.694Z,36.64
2023-05-14T11:39:49.682Z,36.52
2023-05-14T11:40:49.664Z,35.70
2023-05-14T11:41:49.647Z,35.29
2023-05-14T11:42:49.633Z,35.47
2023-05-14T11:43:49.653Z,34.67
2023-05-14T11:44:49.615Z,33.95
2023-05-14T11:45:49.620Z,33.23
2023-05-14T11:46:49.582Z,33.54
2023-05-14T11:47:49.639Z,34.46
2023-05-14T11:48:49.584Z,33.67
2023-05-14T11:49:49.564Z,33.16
2023-05-14T11:50:49.538Z,33.69
2023-05-14T11:51:49.544Z,33.41
2023-05-14T11:52:49.515Z,34.00
2023-05-14T11:53:49.526Z,33.18
2023-05-14T11:54:49.498Z,32.98
2023-05-14T11:55:49.478Z,32.69
2023-05-14T11:56:49.464Z,32.11
2023-05-14T11:57:49.453Z,32.10
2023-05-14T11:58:49.449Z,31.77
2023-05-14T11:59:49.452Z,30.38
2023-05-14T12:00:49.416Z,31.07
2023-05-14T12:01:50.751Z,30.57
2023-05-14T12:02:49.492Z,31.46
2023-05-14T12:03:49.485Z,30.97
2023-05-14T12:04:49.450Z,30.19
2023-05-14T12:05:49.355Z,30.38
2023-05-14T12:06:49.342Z,30.47
2023-05-14T12:07:49.330Z,30.55
2023-05-14T12:08:49.322Z,31.69
2023-05-14T12:09:49.422Z,32.83
2023-05-14T12:10:49.296Z,34.16
2023-05-14T12:11:49.282Z,35.33
2023-05-14T12:12:49.271Z,36.57
2023-05-14T12:13:49.261Z,36.53
2023-05-14T12:14:49.251Z,35.71
2023-05-14T12:15:49.315Z,35.19
2023-05-14T12:16:49.223Z,34.67
2023-05-14T12:17:49.234Z,33.91
2023-05-14T12:18:49.241Z,32.40
2023-05-14T12:19:49.202Z,31.79
2023-05-14T12:20:49.179Z,31.46
2023-05-14T12:21:49.163Z,31.28
2023-05-14T12:22:49.158Z,31.29
2023-05-14T12:23:49.137Z,30.62
2023-05-14T12:24:49.126Z,31.57
2023-05-14T12:25:49.111Z,33.50
2023-05-14T12:26:49.103Z,33.36
2023-05-14T12:27:49.092Z,33.16
2023-05-14T12:28:49.109Z,32.62
2023-05-14T12:29:49.067Z,31.32
2023-05-14T12:30:49.055Z,31.20
2023-05-14T12:31:49.186Z,30.01
2023-05-14T12:32:49.204Z,31.25
2023-05-14T12:33:49.018Z,31.23
2023-05-14T12:34:49.008Z,30.12
2023-05-14T12:35:48.995Z,30.10
2023-05-14T12:36:48.983Z,29.69
2023-05-14T12:37:48.972Z,29.58
2023-05-14T12:38:48.966Z,30.06
2023-05-14T12:39:48.946Z,30.04
2023-05-14T12:40:48.939Z,29.54
2023-05-14T12:41:48.934Z,29.85
2023-05-14T12:42:48.919Z,30.47
2023-05-14T12:43:48.912Z,31.77
2023-05-14T12:44:48.885Z,31.97
2023-05-14T12:45:48.883Z,32.17
2023-05-14T12:46:48.951Z,32.57
2023-05-14T12:47:48.913Z,32.56
2023-05-14T12:48:51.127Z,33.45
2023-05-14T12:49:48.830Z,31.66
2023-05-14T12:50:48.821Z,30.67
2023-05-14T12:51:50.116Z,30.68
2023-05-14T12:52:48.811Z,31.51
2023-05-14T12:53:48.785Z,32.26
2023-05-14T12:54:48.765Z,33.29
2023-05-14T12:55:48.756Z,33.70